sensor_id;sensor_type;location;lat;lon;timestamp;pressure;altitude;pressure_sealevel;temperature;humidity
16120;BME280;12670;53.502;10.252;2022-12-10T00:00:20;100559.97;;;2.71;95.22
16120;BME280;12670;53.502;10.252;2022-12-10T00:03:23;100560.69;;;2.83;94.94
16120;BME280;12670;53.502;10.252;2022-12-10T00:06:28;100561.66;;;2.73;95.32
16120;BME280;12670;53.502;10.252;2022-12-10T00:09:31;100556.31;;;2.81;94.98
16120;BME280;12670;53.502;10.252;2022-12-10T00:12:34;100555.53;;;2.74;94.93
16120;BME280;12670;53.502;10.252;2022-12-10T00:15:37;100562.69;;;2.61;94.71
16120;BME280;12670;53.502;10.252;2022-12-10T00:18:40;100568.84;;;2.57;94.72
16120;BME280;12670;53.502;10.252;2022-12-10T00:21:44;100568.78;;;2.65;94.25
16120;BME280;12670;53.502;10.252;2022-12-10T00:24:47;100561.22;;;2.37;94.89
16120;BME280;12670;53.502;10.252;2022-12-10T00:27:50;100563.81;;;2.39;94.95
16120;BME280;12670;53.502;10.252;2022-12-10T00:30:52;100566.38;;;2.44;94.89
16120;BME280;12670;53.502;10.252;2022-12-10T00:33:57;100571.66;;;2.42;94.80
16120;BME280;12670;53.502;10.252;2022-12-10T00:37:01;100562.81;;;2.51;94.51
16120;BME280;12670;53.502;10.252;2022-12-10T00:40:04;100564.59;;;2.46;94.25
16120;BME280;12670;53.502;10.252;2022-12-10T00:43:07;100562.72;;;2.57;94.60
16120;BME280;12670;53.502;10.252;2022-12-10T00:46:10;100566.19;;;2.60;93.56
16120;BME280;12670;53.502;10.252;2022-12-10T00:49:14;100572.19;;;2.68;93.40
16120;BME280;12670;53.502;10.252;2022-12-10T00:52:17;100578.50;;;2.54;92.99
16120;BME280;12670;53.502;10.252;2022-12-10T00:55:20;100575.81;;;2.57;93.94
16120;BME280;12670;53.502;10.252;2022-12-10T00:58:23;100581.84;;;2.63;94.46
16120;BME280;12670;53.502;10.252;2022-12-10T01:01:29;100578.38;;;2.63;94.89
16120;BME280;12670;53.502;10.252;2022-12-10T01:04:33;100580.16;;;2.61;93.78
16120;BME280;12670;53.502;10.252;2022-12-10T01:07:37;100581.06;;;2.60;93.86
16120;BME280;12670;53.502;10.252;2022-12-10T01:10:40;100585.22;;;2.76;94.12
16120;BME280;12670;53.502;10.252;2022-12-10T01:13:44;100583.44;;;2.78;93.60
16120;BME280;12670;53.502;10.252;2022-12-10T01:16:47;100581.78;;;2.71;92.48
16120;BME280;12670;53.502;10.252;2022-12-10T01:19:49;100583.59;;;2.66;93.13
16120;BME280;12670;53.502;10.252;2022-12-10T01:22:53;100585.31;;;2.67;93.24
16120;BME280;12670;53.502;10.252;2022-12-10T01:25:59;100587.03;;;2.68;92.98
16120;BME280;12670;53.502;10.252;2022-12-10T01:29:03;100586.13;;;2.72;92.65
16120;BME280;12670;53.502;10.252;2022-12-10T01:32:06;100587.91;;;2.70;92.86
16120;BME280;12670;53.502;10.252;2022-12-10T01:35:09;100589.75;;;2.62;92.73
16120;BME280;12670;53.502;10.252;2022-12-10T01:38:12;100595.78;;;2.70;92.85
16120;BME280;12670;53.502;10.252;2022-12-10T01:41:18;100601.03;;;2.67;93.16
16120;BME280;12670;53.502;10.252;2022-12-10T01:44:57;100594.03;;;2.71;92.08
16120;BME280;12670;53.502;10.252;2022-12-10T01:48:00;100597.56;;;2.65;92.98
16120;BME280;12670;53.502;10.252;2022-12-10T01:51:09;100598.50;;;2.58;92.54
16120;BME280;12670;53.502;10.252;2022-12-10T01:54:16;100596.63;;;2.69;92.84
16120;BME280;12670;53.502;10.252;2022-12-10T01:57:21;100587.94;;;2.67;93.56
16120;BME280;12670;53.502;10.252;2022-12-10T02:00:25;100587.91;;;2.70;93.23
16120;BME280;12670;53.502;10.252;2022-12-10T02:03:36;100595.72;;;2.73;93.74
16120;BME280;12670;53.502;10.252;2022-12-10T02:06:45;100595.78;;;2.70;92.76
16120;BME280;12670;53.502;10.252;2022-12-10T02:09:56;100599.47;;;2.51;92.96
16120;BME280;12670;53.502;10.252;2022-12-10T02:13:05;100604.63;;;2.60;92.33
16120;BME280;12670;53.502;10.252;2022-12-10T02:16:14;100606.25;;;2.70;92.96
16120;BME280;12670;53.502;10.252;2022-12-10T02:19:22;100599.16;;;2.78;92.17
16120;BME280;12670;53.502;10.252;2022-12-10T02:22:31;100599.31;;;2.66;91.94
16120;BME280;12670;53.502;10.252;2022-12-10T02:25:40;100603.69;;;2.65;92.81
16120;BME280;12670;53.502;10.252;2022-12-10T02:28:49;100606.25;;;2.70;91.82
16120;BME280;12670;53.502;10.252;2022-12-10T02:31:57;100607.09;;;2.72;92.74
16120;BME280;12670;53.502;10.252;2022-12-10T02:35:06;100621.03;;;2.74;92.53
16120;BME280;12670;53.502;10.252;2022-12-10T02:38:14;100614.94;;;2.72;92.26
16120;BME280;12670;53.502;10.252;2022-12-10T02:41:20;100619.16;;;2.85;92.13
16120;BME280;12670;53.502;10.252;2022-12-10T02:44:24;100610.06;;;2.42;90.69
16120;BME280;12670;53.502;10.252;2022-12-10T02:47:30;100606.34;;;2.61;91.61
16120;BME280;12670;53.502;10.252;2022-12-10T02:50:34;100611.50;;;2.67;92.04
16120;BME280;12670;53.502;10.252;2022-12-10T02:53:41;100616.69;;;2.73;90.75
16120;BME280;12670;53.502;10.252;2022-12-10T02:56:48;100614.00;;;2.78;90.83
16120;BME280;12670;53.502;10.252;2022-12-10T03:00:15;100614.06;;;2.73;90.29
16120;BME280;12670;53.502;10.252;2022-12-10T03:03:28;100621.81;;;2.82;89.95
16120;BME280;12670;53.502;10.252;2022-12-10T03:06:37;100621.84;;;2.79;89.34
16120;BME280;12670;53.502;10.252;2022-12-10T03:09:46;100614.13;;;2.70;89.98
16120;BME280;12670;53.502;10.252;2022-12-10T03:12:54;100614.94;;;2.72;89.50
16120;BME280;12670;53.502;10.252;2022-12-10T03:16:00;100617.59;;;2.71;90.21
16120;BME280;12670;53.502;10.252;2022-12-10T03:19:09;100615.84;;;2.70;88.40
16120;BME280;12670;53.502;10.252;2022-12-10T03:22:13;100622.94;;;2.60;88.89
16120;BME280;12670;53.502;10.252;2022-12-10T03:25:19;100622.91;;;2.64;88.22
16120;BME280;12670;53.502;10.252;2022-12-10T03:28:22;100612.44;;;2.64;89.20
16120;BME280;12670;53.502;10.252;2022-12-10T03:31:26;100620.56;;;2.38;88.09
16120;BME280;12670;53.502;10.252;2022-12-10T03:34:30;100608.16;;;2.56;88.68
16120;BME280;12670;53.502;10.252;2022-12-10T03:37:34;100618.69;;;2.53;88.20
16120;BME280;12670;53.502;10.252;2022-12-10T03:40:37;100619.63;;;2.44;88.74
16120;BME280;12670;53.502;10.252;2022-12-10T03:43:53;100622.44;;;2.24;89.14
16120;BME280;12670;53.502;10.252;2022-12-10T03:46:55;100619.84;;;2.24;89.35
16120;BME280;12670;53.502;10.252;2022-12-10T03:49:59;100626.59;;;2.47;89.54
16120;BME280;12670;53.502;10.252;2022-12-10T03:53:02;100627.47;;;2.47;90.25
16120;BME280;12670;53.502;10.252;2022-12-10T03:56:05;100623.91;;;2.53;89.11
16120;BME280;12670;53.502;10.252;2022-12-10T03:59:07;100624.75;;;2.52;88.53
16120;BME280;12670;53.502;10.252;2022-12-10T04:02:10;100618.75;;;2.47;89.23
16120;BME280;12670;53.502;10.252;2022-12-10T04:05:14;100621.19;;;2.60;89.68
16120;BME280;12670;53.502;10.252;2022-12-10T04:08:17;100622.03;;;2.64;90.18
16120;BME280;12670;53.502;10.252;2022-12-10T04:11:20;100626.69;;;2.37;88.96
16120;BME280;12670;53.502;10.252;2022-12-10T04:14:23;100620.44;;;2.52;88.59
16120;BME280;12670;53.502;10.252;2022-12-10T04:17:43;100622.16;;;2.52;88.06
16120;BME280;12670;53.502;10.252;2022-12-10T04:20:47;100619.44;;;2.61;88.48
16120;BME280;12670;53.502;10.252;2022-12-10T04:24:08;100624.84;;;2.47;88.85
16120;BME280;12670;53.502;10.252;2022-12-10T04:27:38;100627.41;;;2.50;86.99
16120;BME280;12670;53.502;10.252;2022-12-10T04:30:41;100626.53;;;2.51;87.56
16120;BME280;12670;53.502;10.252;2022-12-10T04:33:44;100627.44;;;2.49;88.61
16120;BME280;12670;53.502;10.252;2022-12-10T04:36:48;100626.53;;;2.53;89.47
16120;BME280;12670;53.502;10.252;2022-12-10T04:39:52;100623.91;;;2.51;89.34
16120;BME280;12670;53.502;10.252;2022-12-10T04:42:54;100624.75;;;2.55;89.01
16120;BME280;12670;53.502;10.252;2022-12-10T04:45:57;100621.25;;;2.54;89.14
16120;BME280;12670;53.502;10.252;2022-12-10T04:49:00;100624.13;;;2.31;88.60
16120;BME280;12670;53.502;10.252;2022-12-10T04:52:04;100613.00;;;2.08;89.13
16120;BME280;12670;53.502;10.252;2022-12-10T04:55:08;100621.59;;;2.21;88.88
16120;BME280;12670;53.502;10.252;2022-12-10T04:58:10;100629.41;;;2.25;90.58
16120;BME280;12670;53.502;10.252;2022-12-10T05:01:13;100625.03;;;2.27;90.04
16120;BME280;12670;53.502;10.252;2022-12-10T05:04:17;100627.56;;;2.36;89.16
16120;BME280;12670;53.502;10.252;2022-12-10T05:07:22;100627.50;;;2.43;89.63
16120;BME280;12670;53.502;10.252;2022-12-10T05:10:24;100632.75;;;2.41;89.21
16120;BME280;12670;53.502;10.252;2022-12-10T05:13:27;100636.25;;;2.42;88.29
16120;BME280;12670;53.502;10.252;2022-12-10T05:16:32;100643.22;;;2.43;89.66
16120;BME280;12670;53.502;10.252;2022-12-10T05:19:35;100641.72;;;2.17;90.07
16120;BME280;12670;53.502;10.252;2022-12-10T05:22:39;100634.66;;;2.25;89.11
16120;BME280;12670;53.502;10.252;2022-12-10T05:26:01;100632.94;;;2.21;89.21
16120;BME280;12670;53.502;10.252;2022-12-10T05:29:03;100639.03;;;2.23;87.74
16120;BME280;12670;53.502;10.252;2022-12-10T05:32:06;100636.44;;;2.20;89.81
16120;BME280;12670;53.502;10.252;2022-12-10T05:35:09;100639.91;;;2.22;89.09
16120;BME280;12670;53.502;10.252;2022-12-10T05:38:13;100635.44;;;2.33;89.70
16120;BME280;12670;53.502;10.252;2022-12-10T05:41:17;100631.06;;;2.34;88.16
16120;BME280;12670;53.502;10.252;2022-12-10T05:44:20;100631.13;;;2.29;88.90
16120;BME280;12670;53.502;10.252;2022-12-10T05:47:23;100637.16;;;2.37;88.54
16120;BME280;12670;53.502;10.252;2022-12-10T05:50:25;100642.28;;;2.45;89.10
16120;BME280;12670;53.502;10.252;2022-12-10T05:53:29;100634.53;;;2.34;88.96
16120;BME280;12670;53.502;10.252;2022-12-10T05:56:32;100639.09;;;2.19;88.94
16120;BME280;12670;53.502;10.252;2022-12-10T05:59:35;100635.41;;;2.36;89.57
16120;BME280;12670;53.502;10.252;2022-12-10T06:02:37;100639.13;;;2.14;88.88
16120;BME280;12670;53.502;10.252;2022-12-10T06:05:40;100640.66;;;2.33;89.00
16120;BME280;12670;53.502;10.252;2022-12-10T06:08:44;100642.34;;;2.39;89.32
16120;BME280;12670;53.502;10.252;2022-12-10T06:11:47;100642.47;;;2.28;89.08
16120;BME280;12670;53.502;10.252;2022-12-10T06:14:49;100645.00;;;2.34;88.45
16120;BME280;12670;53.502;10.252;2022-12-10T06:17:53;100648.53;;;2.33;88.89
16120;BME280;12670;53.502;10.252;2022-12-10T06:20:56;100652.97;;;2.25;89.21
16120;BME280;12670;53.502;10.252;2022-12-10T06:24:00;100652.94;;;2.28;90.59
16120;BME280;12670;53.502;10.252;2022-12-10T06:27:03;100656.38;;;2.35;90.26
16120;BME280;12670;53.502;10.252;2022-12-10T06:30:07;100657.44;;;2.17;89.57
16120;BME280;12670;53.502;10.252;2022-12-10T06:33:11;100659.00;;;2.32;89.00
16120;BME280;12670;53.502;10.252;2022-12-10T06:36:15;100654.06;;;2.01;88.48
16120;BME280;12670;53.502;10.252;2022-12-10T06:39:20;100650.47;;;2.10;90.08
16120;BME280;12670;53.502;10.252;2022-12-10T06:42:22;100653.09;;;2.10;89.68
16120;BME280;12670;53.502;10.252;2022-12-10T06:45:25;100658.22;;;2.25;90.03
16120;BME280;12670;53.502;10.252;2022-12-10T06:48:27;100660.78;;;2.28;90.01
16120;BME280;12670;53.502;10.252;2022-12-10T06:51:30;100666.13;;;2.19;88.23
16120;BME280;12670;53.502;10.252;2022-12-10T06:54:34;100673.97;;;2.19;88.21
16120;BME280;12670;53.502;10.252;2022-12-10T06:57:37;100676.59;;;2.19;88.88
16120;BME280;12670;53.502;10.252;2022-12-10T07:00:39;100673.94;;;2.24;88.41
16120;BME280;12670;53.502;10.252;2022-12-10T07:03:42;100676.59;;;2.19;87.72
16120;BME280;12670;53.502;10.252;2022-12-10T07:06:45;100676.50;;;2.27;87.93
16120;BME280;12670;53.502;10.252;2022-12-10T07:09:49;100688.72;;;2.26;87.76
16120;BME280;12670;53.502;10.252;2022-12-10T07:12:51;100696.56;;;2.29;86.35
16120;BME280;12670;53.502;10.252;2022-12-10T07:15:54;100701.03;;;2.18;87.50
16120;BME280;12670;53.502;10.252;2022-12-10T07:18:58;100698.38;;;2.20;87.68
16120;BME280;12670;53.502;10.252;2022-12-10T07:22:01;100697.50;;;2.21;87.92
16120;BME280;12670;53.502;10.252;2022-12-10T07:25:05;100699.31;;;2.14;87.10
16120;BME280;12670;53.502;10.252;2022-12-10T07:28:08;100705.41;;;2.14;87.59
16120;BME280;12670;53.502;10.252;2022-12-10T07:31:11;100701.78;;;2.31;86.87
16120;BME280;12670;53.502;10.252;2022-12-10T07:34:14;100701.00;;;2.21;86.63
16120;BME280;12670;53.502;10.252;2022-12-10T07:37:17;100708.81;;;2.29;86.57
16120;BME280;12670;53.502;10.252;2022-12-10T07:40:21;100714.03;;;2.26;86.59
16120;BME280;12670;53.502;10.252;2022-12-10T07:43:24;100709.63;;;2.32;86.77
16120;BME280;12670;53.502;10.252;2022-12-10T07:46:29;100712.22;;;2.34;86.85
16120;BME280;12670;53.502;10.252;2022-12-10T07:49:32;100718.41;;;2.25;85.03
16120;BME280;12670;53.502;10.252;2022-12-10T07:52:35;100710.53;;;2.30;85.71
16120;BME280;12670;53.502;10.252;2022-12-10T07:55:39;100709.78;;;2.17;88.23
16120;BME280;12670;53.502;10.252;2022-12-10T07:58:42;100721.00;;;2.30;87.79
16120;BME280;12670;53.502;10.252;2022-12-10T08:01:45;100722.72;;;2.31;88.21
16120;BME280;12670;53.502;10.252;2022-12-10T08:04:47;100727.97;;;2.31;88.47
16120;BME280;12670;53.502;10.252;2022-12-10T08:07:50;100723.53;;;2.37;87.06
16120;BME280;12670;53.502;10.252;2022-12-10T08:11:03;100726.16;;;2.34;86.85
16120;BME280;12670;53.502;10.252;2022-12-10T08:14:05;100728.72;;;2.44;87.02
16120;BME280;12670;53.502;10.252;2022-12-10T08:17:08;100734.00;;;2.40;88.00
16120;BME280;12670;53.502;10.252;2022-12-10T08:20:11;100731.44;;;2.31;87.63
16120;BME280;12670;53.502;10.252;2022-12-10T08:23:13;100737.59;;;2.26;87.25
16120;BME280;12670;53.502;10.252;2022-12-10T08:26:19;100732.28;;;2.36;87.43
16120;BME280;12670;53.502;10.252;2022-12-10T08:29:22;100736.72;;;2.27;85.64
16120;BME280;12670;53.502;10.252;2022-12-10T08:32:24;100730.03;;;1.84;86.45
16120;BME280;12670;53.502;10.252;2022-12-10T08:35:28;100746.59;;;1.90;86.31
16120;BME280;12670;53.502;10.252;2022-12-10T08:38:31;100736.78;;;2.19;87.22
16120;BME280;12670;53.502;10.252;2022-12-10T08:41:35;100741.13;;;2.22;86.96
16120;BME280;12670;53.502;10.252;2022-12-10T08:44:38;100748.81;;;2.40;87.90
16120;BME280;12670;53.502;10.252;2022-12-10T08:47:41;100743.78;;;2.16;85.23
16120;BME280;12670;53.502;10.252;2022-12-10T08:50:44;100749.78;;;2.31;85.42
16120;BME280;12670;53.502;10.252;2022-12-10T08:53:47;100751.56;;;2.26;86.83
16120;BME280;12670;53.502;10.252;2022-12-10T08:56:51;100760.25;;;2.28;85.51
16120;BME280;12670;53.502;10.252;2022-12-10T08:59:54;100763.63;;;2.46;83.13
16120;BME280;12670;53.502;10.252;2022-12-10T09:02:56;100760.22;;;2.34;84.53
16120;BME280;12670;53.502;10.252;2022-12-10T09:06:02;100765.44;;;2.37;85.74
16120;BME280;12670;53.502;10.252;2022-12-10T09:09:05;100773.22;;;2.45;85.64
16120;BME280;12670;53.502;10.252;2022-12-10T09:12:09;100768.03;;;2.40;85.78
16120;BME280;12670;53.502;10.252;2022-12-10T09:15:11;100768.91;;;2.43;85.22
16120;BME280;12670;53.502;10.252;2022-12-10T09:18:14;100769.78;;;2.38;85.42
16120;BME280;12670;53.502;10.252;2022-12-10T09:21:17;100779.28;;;2.52;87.14
16120;BME280;12670;53.502;10.252;2022-12-10T09:24:19;100782.81;;;2.48;86.60
16120;BME280;12670;53.502;10.252;2022-12-10T09:27:23;100779.34;;;2.47;86.36
16120;BME280;12670;53.502;10.252;2022-12-10T09:30:26;100780.19;;;2.46;83.47
16120;BME280;12670;53.502;10.252;2022-12-10T09:33:29;100782.81;;;2.48;83.66
16120;BME280;12670;53.502;10.252;2022-12-10T09:36:32;100783.66;;;2.51;86.07
16120;BME280;12670;53.502;10.252;2022-12-10T09:39:34;100778.41;;;2.51;85.19
16120;BME280;12670;53.502;10.252;2022-12-10T09:42:46;100782.78;;;2.54;85.15
16120;BME280;12670;53.502;10.252;2022-12-10T09:46:04;100784.47;;;2.58;83.80
16120;BME280;12670;53.502;10.252;2022-12-10T09:49:15;100774.94;;;2.46;84.92
16120;BME280;12670;53.502;10.252;2022-12-10T09:52:23;100781.00;;;2.56;84.78
16120;BME280;12670;53.502;10.252;2022-12-10T09:55:31;100779.28;;;2.52;84.29
16120;BME280;12670;53.502;10.252;2022-12-10T09:58:36;100782.81;;;2.48;84.87
16120;BME280;12670;53.502;10.252;2022-12-10T10:01:39;100783.63;;;2.56;84.55
16120;BME280;12670;53.502;10.252;2022-12-10T10:04:42;100774.94;;;2.46;84.76
16120;BME280;12670;53.502;10.252;2022-12-10T10:07:47;100774.88;;;2.55;85.70
16120;BME280;12670;53.502;10.252;2022-12-10T10:10:51;100767.00;;;2.60;85.88
16120;BME280;12670;53.502;10.252;2022-12-10T10:13:58;100769.56;;;2.63;84.12
16120;BME280;12670;53.502;10.252;2022-12-10T10:17:03;100779.25;;;2.55;82.10
16120;BME280;12670;53.502;10.252;2022-12-10T10:20:10;100768.78;;;2.55;82.65
16120;BME280;12670;53.502;10.252;2022-12-10T10:23:13;100776.69;;;2.50;81.40
16120;BME280;12670;53.502;10.252;2022-12-10T10:26:17;100767.03;;;2.58;82.53
16120;BME280;12670;53.502;10.252;2022-12-10T10:29:21;100770.47;;;2.62;84.42
16120;BME280;12670;53.502;10.252;2022-12-10T10:32:44;100767.00;;;2.57;84.24
16120;BME280;12670;53.502;10.252;2022-12-10T10:35:52;100778.41;;;2.53;84.28
16120;BME280;12670;53.502;10.252;2022-12-10T10:38:56;100783.53;;;2.63;84.86
16120;BME280;12670;53.502;10.252;2022-12-10T10:42:00;100786.16;;;2.65;85.68
16120;BME280;12670;53.502;10.252;2022-12-10T10:45:33;100787.13;;;2.55;83.76
16120;BME280;12670;53.502;10.252;2022-12-10T10:48:37;100785.34;;;2.60;84.45
16120;BME280;12670;53.502;10.252;2022-12-10T10:51:42;100787.06;;;2.64;84.67
16120;BME280;12670;53.502;10.252;2022-12-10T10:54:45;100784.47;;;2.58;84.78
16120;BME280;12670;53.502;10.252;2022-12-10T10:57:51;100784.50;;;2.55;83.93
16120;BME280;12670;53.502;10.252;2022-12-10T11:00:58;100782.81;;;2.48;84.73
16120;BME280;12670;53.502;10.252;2022-12-10T11:04:01;100788.94;;;2.48;83.37
16120;BME280;12670;53.502;10.252;2022-12-10T11:07:11;100779.25;;;2.55;82.53
16120;BME280;12670;53.502;10.252;2022-12-10T11:10:18;100787.09;;;2.59;82.99
16120;BME280;12670;53.502;10.252;2022-12-10T11:13:23;100781.94;;;2.49;83.20
16120;BME280;12670;53.502;10.252;2022-12-10T11:16:28;100784.91;;;1.97;85.31
16120;BME280;12670;53.502;10.252;2022-12-10T11:19:31;100783.00;;;2.23;84.83
16120;BME280;12670;53.502;10.252;2022-12-10T11:22:34;100779.31;;;2.46;84.16
16120;BME280;12670;53.502;10.252;2022-12-10T11:25:44;100778.47;;;2.47;82.82
16120;BME280;12670;53.502;10.252;2022-12-10T11:29:02;100773.25;;;2.44;82.92
16120;BME280;12670;53.502;10.252;2022-12-10T11:32:20;100766.41;;;2.24;82.14
16120;BME280;12670;53.502;10.252;2022-12-10T11:35:37;100775.00;;;2.43;82.82
16120;BME280;12670;53.502;10.252;2022-12-10T11:38:47;100768.84;;;2.49;82.56
16120;BME280;12670;53.502;10.252;2022-12-10T11:41:56;100771.41;;;2.52;83.21
16120;BME280;12670;53.502;10.252;2022-12-10T11:45:07;100775.75;;;2.59;83.02
16120;BME280;12670;53.502;10.252;2022-12-10T11:48:28;100764.38;;;2.61;82.92
16120;BME280;12670;53.502;10.252;2022-12-10T11:51:40;100770.47;;;2.62;83.84
16120;BME280;12670;53.502;10.252;2022-12-10T11:55:00;100772.16;;;2.71;84.47
16120;BME280;12670;53.502;10.252;2022-12-10T11:58:24;100772.13;;;2.69;84.58
16120;BME280;12670;53.502;10.252;2022-12-10T12:01:44;100776.63;;;2.56;82.66
16120;BME280;12670;53.502;10.252;2022-12-10T12:05:07;100771.25;;;2.72;81.78
16120;BME280;12670;53.502;10.252;2022-12-10T12:08:22;100766.06;;;2.65;82.28
16120;BME280;12670;53.502;10.252;2022-12-10T12:11:36;100760.88;;;2.61;83.62
16120;BME280;12670;53.502;10.252;2022-12-10T12:14:48;100763.50;;;2.58;83.17
16120;BME280;12670;53.502;10.252;2022-12-10T12:17:56;100761.72;;;2.66;82.38
16120;BME280;12670;53.502;10.252;2022-12-10T12:21:04;100759.13;;;2.61;83.24
16120;BME280;12670;53.502;10.252;2022-12-10T12:24:15;100753.97;;;2.52;83.25
16120;BME280;12670;53.502;10.252;2022-12-10T12:27:24;100754.78;;;2.60;83.05
16120;BME280;12670;53.502;10.252;2022-12-10T12:30:32;100756.47;;;2.63;81.92
16120;BME280;12670;53.502;10.252;2022-12-10T12:33:41;100764.34;;;2.63;81.85
16120;BME280;12670;53.502;10.252;2022-12-10T12:36:46;100756.53;;;2.60;82.99
16120;BME280;12670;53.502;10.252;2022-12-10T12:39:54;100761.72;;;2.66;82.22
16120;BME280;12670;53.502;10.252;2022-12-10T12:43:03;100770.44;;;2.65;83.25
16120;BME280;12670;53.502;10.252;2022-12-10T12:46:12;100760.03;;;2.59;83.17
16120;BME280;12670;53.502;10.252;2022-12-10T12:49:21;100766.94;;;2.66;82.32
16120;BME280;12670;53.502;10.252;2022-12-10T12:52:32;100770.47;;;2.62;81.41
16120;BME280;12670;53.502;10.252;2022-12-10T12:55:45;100768.63;;;2.73;79.79
16120;BME280;12670;53.502;10.252;2022-12-10T12:59:09;100770.47;;;2.62;80.19
16120;BME280;12670;53.502;10.252;2022-12-10T13:02:23;100759.19;;;2.54;80.15
16120;BME280;12670;53.502;10.252;2022-12-10T13:05:32;100762.72;;;2.53;79.88
16120;BME280;12670;53.502;10.252;2022-12-10T13:08:44;100768.75;;;2.59;81.43
16120;BME280;12670;53.502;10.252;2022-12-10T13:12:16;100773.22;;;2.48;81.20
16120;BME280;12670;53.502;10.252;2022-12-10T13:15:21;100777.56;;;2.52;82.66
16120;BME280;12670;53.502;10.252;2022-12-10T13:18:35;100782.78;;;2.54;81.34
16120;BME280;12670;53.502;10.252;2022-12-10T13:21:57;100769.59;;;2.64;81.96
16120;BME280;12670;53.502;10.252;2022-12-10T13:25:13;100780.19;;;2.46;81.14
16120;BME280;12670;53.502;10.252;2022-12-10T13:28:21;100777.56;;;2.49;81.03
16120;BME280;12670;53.502;10.252;2022-12-10T13:31:35;100782.72;;;2.57;80.69
16120;BME280;12670;53.502;10.252;2022-12-10T13:34:38;100788.94;;;2.44;81.94
16120;BME280;12670;53.502;10.252;2022-12-10T13:37:55;100787.94;;;2.60;83.35
16120;BME280;12670;53.502;10.252;2022-12-10T13:41:02;100791.53;;;2.50;82.90
16120;BME280;12670;53.502;10.252;2022-12-10T13:44:35;100794.16;;;2.48;82.43
16120;BME280;12670;53.502;10.252;2022-12-10T13:47:43;100791.47;;;2.59;82.63
16120;BME280;12670;53.502;10.252;2022-12-10T13:50:48;100796.69;;;2.60;83.20
16120;BME280;12670;53.502;10.252;2022-12-10T13:54:01;100800.13;;;2.62;82.78
16120;BME280;12670;53.502;10.252;2022-12-10T13:57:19;100807.09;;;2.68;83.27
16120;BME280;12670;53.502;10.252;2022-12-10T14:00:32;100808.00;;;2.65;82.55
16120;BME280;12670;53.502;10.252;2022-12-10T14:07:06;100810.63;;;2.61;81.85
16120;BME280;12670;53.502;10.252;2022-12-10T14:10:13;100808.03;;;2.59;81.08
16120;BME280;12670;53.502;10.252;2022-12-10T14:13:20;100810.75;;;2.46;82.18
16120;BME280;12670;53.502;10.252;2022-12-10T14:16:28;100809.84;;;2.51;82.42
16120;BME280;12670;53.502;10.252;2022-12-10T14:19:33;100813.44;;;2.41;81.09
16120;BME280;12670;53.502;10.252;2022-12-10T14:22:38;100818.56;;;2.52;81.69
16120;BME280;12670;53.502;10.252;2022-12-10T14:25:46;100822.97;;;2.48;81.37
16120;BME280;12670;53.502;10.252;2022-12-10T14:28:54;100816.81;;;2.51;82.80
16120;BME280;12670;53.502;10.252;2022-12-10T14:31:57;100821.25;;;2.43;82.21
16120;BME280;12670;53.502;10.252;2022-12-10T14:35:01;100820.31;;;2.51;81.68
16120;BME280;12670;53.502;10.252;2022-12-10T14:38:05;100818.59;;;2.49;82.61
16120;BME280;12670;53.502;10.252;2022-12-10T14:41:10;100820.31;;;2.50;82.39
16120;BME280;12670;53.502;10.252;2022-12-10T14:44:16;100819.47;;;2.52;83.12
16120;BME280;12670;53.502;10.252;2022-12-10T14:47:21;100819.56;;;2.32;82.04
16120;BME280;12670;53.502;10.252;2022-12-10T14:50:27;100823.84;;;2.46;82.28
16120;BME280;12670;53.502;10.252;2022-12-10T14:53:31;100823.03;;;2.37;81.83
16120;BME280;12670;53.502;10.252;2022-12-10T14:56:36;100824.78;;;2.38;82.33
16120;BME280;12670;53.502;10.252;2022-12-10T14:59:45;100825.56;;;2.50;82.20
16120;BME280;12670;53.502;10.252;2022-12-10T15:02:52;100826.63;;;2.21;82.37
16120;BME280;12670;53.502;10.252;2022-12-10T15:05:57;100825.69;;;2.33;82.82
16120;BME280;12670;53.502;10.252;2022-12-10T15:09:00;100833.56;;;2.31;83.66
16120;BME280;12670;53.502;10.252;2022-12-10T15:12:04;100833.56;;;2.30;82.27
16120;BME280;12670;53.502;10.252;2022-12-10T15:15:13;100838.78;;;2.28;82.88
16120;BME280;12670;53.502;10.252;2022-12-10T15:18:18;100846.66;;;2.27;81.42
16120;BME280;12670;53.502;10.252;2022-12-10T15:21:23;100849.25;;;2.33;82.99
16120;BME280;12670;53.502;10.252;2022-12-10T15:24:32;100844.09;;;2.19;81.53
16120;BME280;12670;53.502;10.252;2022-12-10T15:27:37;100851.00;;;2.35;81.43
16120;BME280;12670;53.502;10.252;2022-12-10T15:30:41;100844.88;;;2.32;81.23
16120;BME280;12670;53.502;10.252;2022-12-10T15:33:50;100845.78;;;2.29;81.75
16120;BME280;12670;53.502;10.252;2022-12-10T15:36:55;100856.25;;;2.29;83.00
16120;BME280;12670;53.502;10.252;2022-12-10T15:40:01;100845.75;;;2.32;82.46
16120;BME280;12670;53.502;10.252;2022-12-10T15:43:13;100855.34;;;2.36;80.91
16120;BME280;12670;53.502;10.252;2022-12-10T15:46:24;100849.25;;;2.28;81.52
16120;BME280;12670;53.502;10.252;2022-12-10T15:49:26;100851.16;;;2.08;82.24
16120;BME280;12670;53.502;10.252;2022-12-10T15:52:30;100846.75;;;2.14;81.48
16120;BME280;12670;53.502;10.252;2022-12-10T15:55:32;100844.13;;;2.10;82.32
16120;BME280;12670;53.502;10.252;2022-12-10T15:58:36;100852.81;;;2.24;82.74
16120;BME280;12670;53.502;10.252;2022-12-10T16:01:40;100850.16;;;2.30;82.30
16120;BME280;12670;53.502;10.252;2022-12-10T16:04:43;100858.00;;;2.27;82.67
16120;BME280;12670;53.502;10.252;2022-12-10T16:07:47;100854.53;;;2.25;82.03
16120;BME280;12670;53.502;10.252;2022-12-10T16:10:52;100848.41;;;2.28;82.15
16120;BME280;12670;53.502;10.252;2022-12-10T16:13:55;100856.31;;;2.23;81.30
16120;BME280;12670;53.502;10.252;2022-12-10T16:16:59;100847.69;;;2.03;82.92